Time;durP1;ratioP1;P1;durP2;ratioP2;P2;SDS_P1;SDS_P2;PMS_P1;PMS_P2;Temp;Humidity;BMP_temperature;BMP_pressure;BME280_temperature;BME280_humidity;BME280_pressure;Samples;Min_cycle;Max_cycle;Signal;HPM_P1;HPM_P2
2021/07/01 00:01:05;;;;;;;0.68;0.20;;;24.60;48.90;;;;;;5011236;28;20423;-64
2021/07/01 00:03:32;;;;;;;0.90;0.20;;;24.60;48.80;;;;;;5012490;28;20504;-64
2021/07/01 00:05:57;;;;;;;0.50;0.10;;;24.60;48.80;;;;;;5012483;28;20393;-64
2021/07/01 00:08:24;;;;;;;0.40;0.10;;;24.60;48.80;;;;;;5012367;28;20464;-64
2021/07/01 00:10:50;;;;;;;0.30;0.10;;;24.60;48.90;;;;;;5010169;28;21224;-65
2021/07/01 00:13:16;;;;;;;0.20;0.10;;;24.60;48.90;;;;;;5010785;28;20746;-64
2021/07/01 00:15:42;;;;;;;0.38;0.10;;;24.60;48.90;;;;;;5012328;28;20400;-64
2021/07/01 00:18:07;;;;;;;0.20;0.10;;;24.60;48.90;;;;;;5012265;28;20399;-64
2021/07/01 00:20:33;;;;;;;0.40;0.20;;;24.60;48.80;;;;;;5011630;28;20424;-64
2021/07/01 00:22:59;;;;;;;0.20;0.10;;;24.60;48.90;;;;;;5012286;28;20463;-64
2021/07/01 00:25:25;;;;;;;0.25;0.10;;;24.60;48.90;;;;;;5012089;28;20436;-64
2021/07/01 00:27:51;;;;;;;0.70;0.10;;;24.60;48.90;;;;;;5012191;28;20393;-64
2021/07/01 00:30:19;;;;;;;0.40;0.20;;;24.60;48.80;;;;;;5010758;28;20411;-64
2021/07/01 00:32:45;;;;;;;0.20;0.10;;;24.70;48.80;;;;;;5011493;28;20385;-63
2021/07/01 00:35:11;;;;;;;0.20;0.10;;;24.70;48.60;;;;;;5011352;28;20396;-64
2021/07/01 00:37:37;;;;;;;0.20;0.10;;;24.70;48.50;;;;;;5010674;28;20443;-64
2021/07/01 00:40:05;;;;;;;0.30;0.10;;;24.70;48.40;;;;;;5011855;28;20433;-64
2021/07/01 00:42:31;;;;;;;0.47;0.20;;;24.80;48.40;;;;;;5011630;28;20388;-64
2021/07/01 00:44:57;;;;;;;0.20;0.10;;;24.80;48.40;;;;;;5011963;28;20396;-64
2021/07/01 00:47:24;;;;;;;0.53;0.10;;;24.80;48.40;;;;;;5011857;28;20745;-64
2021/07/01 00:49:50;;;;;;;0.40;0.10;;;24.80;48.40;;;;;;5011888;28;20808;-64
2021/07/01 00:52:15;;;;;;;0.10;0.10;;;24.80;48.40;;;;;;5011822;28;20396;-64
2021/07/01 00:54:42;;;;;;;0.20;0.10;;;24.80;48.40;;;;;;5011310;28;20500;-64
2021/07/01 00:57:09;;;;;;;0.20;0.10;;;24.80;48.40;;;;;;5011757;28;20401;-64
2021/07/01 00:59:37;;;;;;;0.20;0.10;;;24.80;48.40;;;;;;5011648;28;20412;-64
2021/07/01 01:02:03;;;;;;;0.30;0.20;;;24.80;48.40;;;;;;5012069;28;20741;-64
2021/07/01 01:04:29;;;;;;;0.35;0.10;;;24.80;48.30;;;;;;5011480;28;20395;-64
2021/07/01 01:06:55;;;;;;;0.30;0.10;;;24.80;48.40;;;;;;5011560;28;20396;-64
2021/07/01 01:09:20;;;;;;;0.10;0.10;;;24.80;48.30;;;;;;5011751;28;20416;-64
2021/07/01 01:11:46;;;;;;;0.30;0.10;;;24.80;48.50;;;;;;5011783;28;20557;-64
2021/07/01 01:14:12;;;;;;;0.20;0.10;;;24.80;48.30;;;;;;5011616;28;20396;-64
2021/07/01 01:16:37;;;;;;;0.20;0.00;;;24.80;48.30;;;;;;5011170;28;20756;-64
2021/07/01 01:19:03;;;;;;;0.10;0.10;;;24.80;48.30;;;;;;5011639;28;20381;-64
2021/07/01 01:21:30;;;;;;;0.22;0.10;;;24.80;48.30;;;;;;5010032;28;20432;-64
2021/07/01 01:23:58;;;;;;;0.20;0.10;;;24.80;48.30;;;;;;5010296;28;20796;-65
2021/07/01 01:26:24;;;;;;;0.20;0.10;;;24.80;48.30;;;;;;5011442;28;20903;-64
2021/07/01 01:28:51;;;;;;;0.40;0.10;;;24.80;48.20;;;;;;5011044;28;20483;-64
2021/07/01 01:31:17;;;;;;;0.10;0.03;;;24.90;48.20;;;;;;5011419;28;20388;-65
2021/07/01 01:33:43;;;;;;;0.20;0.20;;;24.90;48.20;;;;;;5011458;28;20393;-64
2021/07/01 01:36:09;;;;;;;1.10;0.10;;;24.90;48.20;;;;;;5010147;28;20447;-64
2021/07/01 01:38:35;;;;;;;0.13;0.10;;;24.90;48.30;;;;;;5009757;28;20411;-64
2021/07/01 01:41:00;;;;;;;0.20;0.00;;;24.80;48.30;;;;;;5011345;28;20753;-64
2021/07/01 01:43:26;;;;;;;0.30;0.10;;;24.80;48.40;;;;;;5011374;28;20389;-65
2021/07/01 01:45:52;;;;;;;0.20;0.10;;;24.80;48.40;;;;;;5013541;28;20401;-64
2021/07/01 01:48:19;;;;;;;0.40;0.10;;;24.80;48.30;;;;;;5013708;28;20491;-64
2021/07/01 01:50:45;;;;;;;0.20;0.00;;;24.80;48.40;;;;;;5014522;28;20888;-64
2021/07/01 01:53:12;;;;;;;0.20;0.10;;;24.80;48.40;;;;;;5014973;28;20397;-64
2021/07/01 01:55:38;;;;;;;0.70;0.10;;;24.80;48.30;;;;;;5014855;28;20404;-64
2021/07/01 01:58:04;;;;;;;0.10;0.10;;;24.80;48.40;;;;;;5014935;28;20395;-64
2021/07/01 02:00:30;;;;;;;0.17;0.08;;;24.80;48.40;;;;;;5014528;28;20420;-64
2021/07/01 02:02:57;;;;;;;0.25;0.10;;;24.80;48.30;;;;;;5013332;28;20420;-64
2021/07/01 02:05:23;;;;;;;0.20;0.10;;;24.80;48.20;;;;;;5014659;28;20486;-64
2021/07/01 02:07:49;;;;;;;0.20;0.10;;;24.90;48.10;;;;;;5014746;28;20888;-64
2021/07/01 02:10:19;;;;;;;0.90;0.10;;;24.90;48.10;;;;;;5014629;28;20385;-64
2021/07/01 02:12:45;;;;;;;0.20;0.00;;;24.90;48.10;;;;;;5014250;28;20415;-64
2021/07/01 02:15:13;;;;;;;0.17;0.05;;;24.90;48.10;;;;;;5014544;28;20393;-64
2021/07/01 02:17:39;;;;;;;0.20;0.00;;;24.90;48.00;;;;;;5014502;28;20393;-64
2021/07/01 02:20:08;;;;;;;0.20;0.10;;;24.90;48.00;;;;;;5014396;28;20420;-64
2021/07/01 02:22:34;;;;;;;0.27;0.10;;;24.90;48.00;;;;;;5014066;28;20403;-64
2021/07/01 02:25:00;;;;;;;0.10;0.05;;;24.90;48.10;;;;;;5014169;28;20388;-64
2021/07/01 02:27:27;;;;;;;0.17;0.10;;;24.90;48.10;;;;;;5012927;28;20409;-65
2021/07/01 02:29:52;;;;;;;0.25;0.10;;;24.90;48.00;;;;;;5013060;28;20455;-64
2021/07/01 02:32:18;;;;;;;0.50;0.10;;;24.90;48.00;;;;;;5014161;28;20393;-64
2021/07/01 02:34:44;;;;;;;0.10;0.10;;;24.90;48.00;;;;;;5013764;28;20740;-64
2021/07/01 02:37:10;;;;;;;0.20;0.10;;;24.90;48.00;;;;;;5014161;28;20389;-64
2021/07/01 02:39:36;;;;;;;0.20;0.10;;;24.90;48.00;;;;;;5013978;28;20412;-64
2021/07/01 02:42:03;;;;;;;0.10;0.10;;;24.90;47.90;;;;;;5014023;28;20791;-64
2021/07/01 02:44:29;;;;;;;0.08;0.00;;;24.90;47.90;;;;;;5013830;28;20423;-64
2021/07/01 02:46:55;;;;;;;0.23;0.10;;;24.90;47.90;;;;;;5013484;28;20439;-64
2021/07/01 02:49:21;;;;;;;0.20;0.10;;;24.90;48.00;;;;;;5013845;28;20395;-64
2021/07/01 02:51:47;;;;;;;0.10;0.10;;;24.90;48.00;;;;;;5013876;28;20862;-64
2021/07/01 02:54:12;;;;;;;0.10;0.03;;;24.90;48.10;;;;;;5012644;28;20393;-65
2021/07/01 02:56:41;;;;;;;0.20;0.10;;;24.90;48.00;;;;;;5012452;28;20862;-64
2021/07/01 02:59:10;;;;;;;0.10;0.10;;;24.90;48.00;;;;;;5013835;28;20433;-64
2021/07/01 03:01:35;;;;;;;0.35;0.10;;;24.90;48.00;;;;;;5013644;28;20459;-64
2021/07/01 03:04:02;;;;;;;0.20;0.10;;;24.90;48.00;;;;;;5013668;28;20852;-64
2021/07/01 03:06:28;;;;;;;0.25;0.03;;;24.90;48.00;;;;;;5013502;28;20421;-64
2021/07/01 03:08:54;;;;;;;0.28;0.10;;;24.80;48.00;;;;;;5013072;28;20760;-64
2021/07/01 03:11:21;;;;;;;0.33;0.20;;;24.90;48.00;;;;;;5013448;28;20389;-64
2021/07/01 03:13:47;;;;;;;0.38;0.10;;;24.90;48.00;;;;;;5013518;28;20392;-64
2021/07/01 03:16:16;;;;;;;1.48;0.20;;;24.90;48.10;;;;;;5012158;28;20397;-65
2021/07/01 03:18:42;;;;;;;0.60;0.20;;;24.90;48.00;;;;;;5011742;28;20484;-65
2021/07/01 03:21:07;;;;;;;0.47;0.20;;;24.90;48.70;;;;;;5011790;28;20503;-64
2021/07/01 03:23:34;;;;;;;0.60;0.20;;;24.90;48.00;;;;;;5011986;28;20443;-64
2021/07/01 03:26:00;;;;;;;0.95;0.10;;;25.00;48.10;;;;;;5013253;28;20459;-64
2021/07/01 03:28:26;;;;;;;1.05;0.10;;;25.00;48.40;;;;;;5011848;28;20781;-64
2021/07/01 03:30:52;;;;;;;0.55;0.10;;;25.00;48.50;;;;;;5012665;28;20429;-64
2021/07/01 03:33:17;;;;;;;1.00;0.20;;;25.00;48.60;;;;;;5012867;28;20417;-64
2021/07/01 03:35:43;;;;;;;1.90;0.20;;;25.00;49.30;;;;;;5012991;28;20851;-64
2021/07/01 03:38:09;;;;;;;3.00;0.10;;;25.00;49.60;;;;;;5012892;28;20381;-64
2021/07/01 03:40:34;;;;;;;1.10;0.20;;;25.00;49.50;;;;;;5011429;28;20417;-64
2021/07/01 03:43:01;;;;;;;1.40;0.15;;;25.00;50.20;;;;;;5012527;28;20396;-64
2021/07/01 03:45:26;;;;;;;2.75;0.10;;;25.00;50.50;;;;;;5014027;28;20436;-64
2021/07/01 03:47:52;;;;;;;1.30;0.13;;;25.10;50.00;;;;;;5012756;28;20435;-64
2021/07/01 03:50:18;;;;;;;0.73;0.10;;;25.10;49.70;;;;;;5012788;28;20389;-65
2021/07/01 03:52:43;;;;;;;1.50;0.10;;;25.10;49.60;;;;;;5011943;28;20389;-64
2021/07/01 03:55:09;;;;;;;1.00;0.20;;;25.10;49.20;;;;;;5012151;28;20443;-63
2021/07/01 03:57:35;;;;;;;1.08;0.17;;;25.10;49.20;;;;;;5012477;28;20807;-64
2021/07/01 04:00:03;;;;;;;1.55;0.20;;;25.10;49.00;;;;;;5012051;28;20460;-63
2021/07/01 04:02:28;;;;;;;3.90;0.22;;;25.10;49.00;;;;;;5012494;28;20775;-66
2021/07/01 04:04:54;;;;;;;9.25;0.50;;;25.10;48.70;;;;;;5011840;28;20894;-66
2021/07/01 04:07:20;;;;;;;11.05;0.75;;;25.00;48.50;;;;;;5011045;28;20411;-66
2021/07/01 04:09:45;;;;;;;5.70;0.50;;;25.00;47.70;;;;;;5012292;28;20523;-66
2021/07/01 04:12:11;;;;;;;3.72;0.52;;;24.90;47.80;;;;;;5012106;28;20396;-66
2021/07/01 04:14:37;;;;;;;5.13;0.50;;;24.90;47.50;;;;;;5012099;28;20488;-66
2021/07/01 04:17:02;;;;;;;2.90;0.40;;;24.90;47.80;;;;;;5011958;28;20906;-66
2021/07/01 04:19:28;;;;;;;3.13;0.30;;;24.90;47.80;;;;;;5012124;28;20450;-66
2021/07/01 04:21:54;;;;;;;2.42;0.30;;;24.90;47.60;;;;;;5012018;28;20423;-66
2021/07/01 04:24:19;;;;;;;1.80;0.20;;;25.00;47.60;;;;;;5012125;28;20388;-67
2021/07/01 04:26:45;;;;;;;1.33;0.20;;;25.00;47.50;;;;;;5010203;28;20407;-66
2021/07/01 04:29:11;;;;;;;2.45;0.25;;;25.00;47.60;;;;;;5012045;28;20385;-66
2021/07/01 04:31:37;;;;;;;1.83;0.30;;;25.00;47.70;;;;;;5012034;28;20389;-66
2021/07/01 04:34:04;;;;;;;2.50;0.30;;;25.00;47.70;;;;;;5012080;28;20955;-66
2021/07/01 04:36:29;;;;;;;3.67;0.40;;;25.00;47.60;;;;;;5011828;28;20393;-66
2021/07/01 04:38:55;;;;;;;4.47;0.50;;;25.00;47.50;;;;;;5011752;28;20400;-66
2021/07/01 04:41:21;;;;;;;0.95;0.20;;;24.90;47.50;;;;;;5011591;28;20445;-66
2021/07/01 04:43:47;;;;;;;3.60;0.40;;;24.90;47.60;;;;;;5011897;28;20413;-66
2021/07/01 04:46:13;;;;;;;2.50;0.20;;;25.00;47.60;;;;;;5012017;28;20393;-66
2021/07/01 04:48:40;;;;;;;3.73;0.40;;;24.90;47.50;;;;;;5011633;28;20894;-66
2021/07/01 04:51:06;;;;;;;1.30;0.20;;;24.90;47.50;;;;;;5011547;28;20748;-66
2021/07/01 04:53:32;;;;;;;1.58;0.32;;;25.00;47.60;;;;;;5011764;28;20479;-66
2021/07/01 04:55:57;;;;;;;2.40;0.20;;;24.90;47.60;;;;;;5011847;28;20864;-66
2021/07/01 04:58:23;;;;;;;1.73;0.30;;;24.90;47.60;;;;;;5011558;28;20753;-66
2021/07/01 05:00:48;;;;;;;2.03;0.40;;;25.00;47.70;;;;;;5009971;28;20451;-67
2021/07/01 05:03:15;;;;;;;1.10;0.20;;;24.90;47.80;;;;;;5011760;28;20764;-66
2021/07/01 05:05:41;;;;;;;1.50;0.20;;;24.90;47.80;;;;;;5011681;28;20925;-66
2021/07/01 05:08:07;;;;;;;0.95;0.20;;;24.90;47.80;;;;;;5011716;28;20471;-66
2021/07/01 05:10:33;;;;;;;1.50;0.25;;;24.90;47.90;;;;;;5011625;28;20396;-66
2021/07/01 05:12:58;;;;;;;1.58;0.20;;;25.00;47.90;;;;;;5011110;28;20436;-66
2021/07/01 05:15:24;;;;;;;1.23;0.13;;;25.00;47.80;;;;;;5011587;28;20485;-66
2021/07/01 05:17:50;;;;;;;1.13;0.22;;;25.00;47.80;;;;;;5011650;28;20392;-67
2021/07/01 05:20:16;;;;;;;0.80;0.20;;;25.00;47.80;;;;;;5012542;28;20421;-66
2021/07/01 05:22:41;;;;;;;0.65;0.20;;;24.90;47.80;;;;;;5015269;28;20391;-66
2021/07/01 05:25:08;;;;;;;0.60;0.17;;;25.00;47.80;;;;;;5015224;28;20443;-66
2021/07/01 05:27:33;;;;;;;0.55;0.20;;;25.00;47.80;;;;;;5015146;28;20455;-66
2021/07/01 05:29:59;;;;;;;0.50;0.20;;;24.90;48.10;;;;;;5014803;28;20385;-66
2021/07/01 05:32:25;;;;;;;0.67;0.17;;;24.90;47.90;;;;;;5015311;28;20389;-66
2021/07/01 05:34:50;;;;;;;1.45;0.28;;;24.90;48.00;;;;;;5013355;28;20396;-66
2021/07/01 05:37:16;;;;;;;1.13;0.30;;;24.90;47.90;;;;;;5015180;28;20385;-66
2021/07/01 05:39:42;;;;;;;1.30;0.30;;;24.90;47.90;;;;;;5015178;28;20419;-67
2021/07/01 05:42:08;;;;;;;1.45;0.20;;;24.90;47.90;;;;;;5015054;28;20476;-66
2021/07/01 05:44:34;;;;;;;1.70;0.20;;;24.90;47.90;;;;;;5015024;28;20861;-66
2021/07/01 05:46:59;;;;;;;0.47;0.10;;;24.90;48.00;;;;;;5014613;28;20458;-67
2021/07/01 05:49:25;;;;;;;0.40;0.10;;;24.90;48.00;;;;;;5014923;28;20745;-67
2021/07/01 05:51:55;;;;;;;0.70;0.20;;;24.90;48.00;;;;;;5015057;28;20734;-65
2021/07/01 05:54:29;;;;;;;0.37;0.20;;;24.90;48.10;;;;;;5014633;28;20396;-66
2021/07/01 05:56:55;;;;;;;0.60;0.20;;;24.90;48.10;;;;;;5014441;28;20393;-66
2021/07/01 05:59:21;;;;;;;0.30;0.10;;;24.90;48.00;;;;;;5014768;28;20482;-70
2021/07/01 06:01:47;;;;;;;0.52;0.20;;;24.90;48.00;;;;;;5013563;28;20419;-66
2021/07/01 06:04:13;;;;;;;1.00;0.20;;;25.00;48.00;;;;;;5017160;28;20395;-67
2021/07/01 06:06:42;;;;;;;0.77;0.20;;;25.00;47.90;;;;;;5026009;28;20425;-66
2021/07/01 06:09:07;;;;;;;0.73;0.30;;;25.00;47.90;;;;;;5025374;28;21013;-66
2021/07/01 06:11:34;;;;;;;1.08;0.30;;;25.00;47.80;;;;;;5017920;28;20443;-66
2021/07/01 06:14:01;;;;;;;0.32;0.20;;;25.00;47.80;;;;;;5016687;28;20757;-66
2021/07/01 06:16:30;;;;;;;0.22;0.10;;;24.90;47.80;;;;;;5024142;28;20391;-67
2021/07/01 06:18:56;;;;;;;0.35;0.10;;;24.90;47.80;;;;;;5024518;28;20423;-65
2021/07/01 06:21:23;;;;;;;0.55;0.10;;;25.00;47.90;;;;;;5025029;28;20506;-66
2021/07/01 06:23:49;;;;;;;0.28;0.10;;;24.90;48.40;;;;;;5034275;28;20423;-66
2021/07/01 06:26:23;;;;;;;1.17;0.30;;;24.90;47.90;;;;;;5032789;28;20396;-66
2021/07/01 06:28:49;;;;;;;8.18;0.55;;;25.00;47.20;;;;;;5033702;28;20387;-66
2021/07/01 06:31:15;;;;;;;7.40;0.60;;;24.90;47.70;;;;;;5031450;28;20399;-66
2021/07/01 06:33:42;;;;;;;3.63;0.47;;;24.90;47.60;;;;;;5030399;28;20404;-66
2021/07/01 06:36:09;;;;;;;4.97;0.50;;;25.00;47.40;;;;;;5020167;28;20794;-66
2021/07/01 06:38:36;;;;;;;2.15;0.30;;;25.00;47.20;;;;;;5023173;28;20393;-66
2021/07/01 06:41:06;;;;;;;2.80;0.40;;;25.00;47.30;;;;;;5023975;28;20476;-66
2021/07/01 06:43:33;;;;;;;3.75;0.32;;;25.00;47.30;;;;;;5022277;28;20412;-66
2021/07/01 06:46:00;;;;;;;1.98;0.32;;;25.00;47.10;;;;;;5019772;28;20447;-66
2021/07/01 06:48:25;;;;;;;1.45;0.30;;;25.00;47.10;;;;;;5024475;28;20387;-66
2021/07/01 06:50:58;;;;;;;2.85;0.40;;;25.00;47.10;;;;;;5013345;28;20389;-66
2021/07/01 06:53:26;;;;;;;3.22;0.30;;;25.10;47.20;;;;;;5023675;28;20815;-66
2021/07/01 06:55:52;;;;;;;2.53;0.30;;;25.10;47.10;;;;;;5029602;28;20400;-66
2021/07/01 06:58:21;;;;;;;2.00;0.28;;;25.10;47.10;;;;;;5012472;28;20409;-66
2021/07/01 07:00:49;;;;;;;0.57;0.20;;;25.10;47.10;;;;;;5011286;28;20424;-66
2021/07/01 07:03:17;;;;;;;3.03;0.25;;;25.10;47.10;;;;;;5016848;28;20419;-66
2021/07/01 07:05:53;;;;;;;2.28;0.52;;;25.10;47.10;;;;;;5019835;28;20402;-66
2021/07/01 07:08:20;;;;;;;2.40;0.30;;;25.00;47.10;;;;;;5021223;28;20383;-66
2021/07/01 07:10:46;;;;;;;2.40;0.30;;;25.10;47.20;;;;;;5026624;28;20424;-66
2021/07/01 07:13:13;;;;;;;1.45;0.30;;;25.10;47.20;;;;;;5018903;28;20756;-66
2021/07/01 07:15:40;;;;;;;0.93;0.20;;;25.10;47.20;;;;;;5025127;28;20400;-66
2021/07/01 07:18:26;;;;;;;1.10;0.20;;;25.10;47.30;;;;;;5022572;28;20794;-67
2021/07/01 07:21:01;;;;;;;1.60;0.20;;;25.00;47.20;;;;;;5027610;28;20437;-66
2021/07/01 07:23:32;;;;;;;1.23;0.20;;;25.00;47.30;;;;;;5029474;28;20530;-66
2021/07/01 07:26:15;;;;;;;1.20;0.20;;;25.00;47.30;;;;;;5024945;28;20381;-66
2021/07/01 07:28:50;;;;;;;1.15;0.28;;;25.00;47.30;;;;;;5019966;28;20879;-66
2021/07/01 07:31:23;;;;;;;1.33;0.10;;;25.00;47.30;;;;;;5019061;28;20387;-66
2021/07/01 07:33:52;;;;;;;0.95;0.20;;;25.00;47.30;;;;;;5021546;28;20414;-66
2021/07/01 07:36:22;;;;;;;1.38;0.20;;;25.00;47.30;;;;;;5020443;28;20416;-66
2021/07/01 07:38:53;;;;;;;2.00;0.20;;;25.00;47.30;;;;;;5015339;28;20401;-66
2021/07/01 07:41:20;;;;;;;0.75;0.22;;;25.10;47.40;;;;;;5020228;28;20895;-66
2021/07/01 07:43:47;;;;;;;1.20;0.15;;;25.00;47.30;;;;;;5019595;28;20933;-66
2021/07/01 07:46:13;;;;;;;2.08;0.22;;;25.00;47.30;;;;;;5021087;28;20395;-66
2021/07/01 07:48:40;;;;;;;1.40;0.30;;;25.00;47.40;;;;;;5020195;28;20400;-65
2021/07/01 07:51:09;;;;;;;0.68;0.20;;;25.00;47.40;;;;;;5033810;28;20412;-66
2021/07/01 07:53:36;;;;;;;0.82;0.30;;;25.00;47.40;;;;;;5020641;28;20383;-67
2021/07/01 07:56:07;;;;;;;1.88;0.30;;;25.00;47.40;;;;;;5036604;28;20402;-66
2021/07/01 07:58:37;;;;;;;0.33;0.13;;;25.00;47.40;;;;;;5019207;28;20448;-66
2021/07/01 08:01:04;;;;;;;0.75;0.20;;;25.00;47.40;;;;;;5018714;28;20506;-66
2021/07/01 08:03:32;;;;;;;0.65;0.20;;;25.00;47.40;;;;;;5020774;28;20391;-66
2021/07/01 08:06:00;;;;;;;1.10;0.32;;;25.00;47.40;;;;;;5018707;28;20405;-66
2021/07/01 08:08:30;;;;;;;0.95;0.17;;;25.00;47.50;;;;;;5023252;28;20395;-67
2021/07/01 08:11:00;;;;;;;0.57;0.17;;;25.00;47.40;;;;;;5031631;28;20391;-66
2021/07/01 08:13:28;;;;;;;1.10;0.30;;;25.00;47.50;;;;;;5030776;28;20479;-66
2021/07/01 08:15:55;;;;;;;0.40;0.25;;;24.90;47.60;;;;;;5031481;28;20470;-66
2021/07/01 08:18:41;;;;;;;0.70;0.30;;;24.90;47.50;;;;;;5031495;28;20387;-67
2021/07/01 08:21:08;;;;;;;0.50;0.20;;;25.00;47.60;;;;;;5031237;28;20423;-66
2021/07/01 08:23:36;;;;;;;0.40;0.20;;;25.00;47.60;;;;;;5030005;28;20454;-66
2021/07/01 08:26:04;;;;;;;1.00;0.20;;;25.00;47.50;;;;;;5031796;28;20391;-66
2021/07/01 08:28:30;;;;;;;0.50;0.20;;;25.00;47.50;;;;;;5031725;28;20384;-66
2021/07/01 08:31:08;;;;;;;0.73;0.20;;;25.00;47.50;;;;;;5031364;28;20901;-66
2021/07/01 08:33:40;;;;;;;0.30;0.20;;;25.00;47.40;;;;;;5031741;28;20383;-65
2021/07/01 08:36:08;;;;;;;0.80;0.20;;;25.00;47.50;;;;;;5031645;28;20395;-66
2021/07/01 08:38:38;;;;;;;0.30;0.10;;;25.00;47.50;;;;;;5031703;28;20402;-66
2021/07/01 08:41:15;;;;;;;0.50;0.20;;;25.00;47.60;;;;;;5031101;28;20426;-65
2021/07/01 08:43:56;;;;;;;0.50;0.20;;;25.00;47.50;;;;;;5031692;28;20445;-66
2021/07/01 08:46:28;;;;;;;0.30;0.20;;;24.90;47.40;;;;;;5031499;28;20395;-66
2021/07/01 08:49:00;;;;;;;0.70;0.30;;;24.90;47.50;;;;;;5031134;28;20395;-66
2021/07/01 08:51:36;;;;;;;1.00;0.30;;;25.00;47.50;;;;;;5031479;28;20779;-66
2021/07/01 08:54:29;;;;;;;0.50;0.20;;;25.00;47.50;;;;;;5029979;28;20388;-66
2021/07/01 08:56:57;;;;;;;0.28;0.10;;;24.90;47.50;;;;;;5030077;28;20434;-66
2021/07/01 08:59:25;;;;;;;0.30;0.10;;;24.90;47.50;;;;;;5031482;28;20790;-66
2021/07/01 09:01:59;;;;;;;0.30;0.20;;;24.90;47.60;;;;;;5031062;28;20407;-66
2021/07/01 09:04:29;;;;;;;0.40;0.20;;;25.00;47.60;;;;;;5031327;28;20717;-66
2021/07/01 09:07:04;;;;;;;0.50;0.20;;;25.00;47.60;;;;;;5031212;28;20402;-66
2021/07/01 09:09:34;;;;;;;0.88;0.25;;;25.00;47.60;;;;;;5030138;28;20395;-66
2021/07/01 09:12:06;;;;;;;0.50;0.20;;;25.00;47.60;;;;;;5031413;28;20444;-66
2021/07/01 09:14:36;;;;;;;0.28;0.10;;;25.00;47.60;;;;;;5031286;28;20383;-66
2021/07/01 09:17:07;;;;;;;0.40;0.20;;;24.90;47.50;;;;;;5029733;28;20399;-66
2021/07/01 09:19:34;;;;;;;0.65;0.22;;;25.00;47.60;;;;;;5031232;28;20464;-65
2021/07/01 09:22:01;;;;;;;0.50;0.15;;;25.00;47.60;;;;;;5011572;28;20761;-66
2021/07/01 09:24:35;;;;;;;0.32;0.20;;;25.00;47.60;;;;;;5011591;28;20388;-66
2021/07/01 09:27:03;;;;;;;0.45;0.15;;;25.00;48.20;;;;;;5011165;28;20419;-66
2021/07/01 09:29:31;;;;;;;0.30;0.15;;;25.00;47.60;;;;;;5011502;28;20479;-66
2021/07/01 09:31:57;;;;;;;0.30;0.20;;;24.90;47.50;;;;;;5010888;28;20392;-66
2021/07/01 09:34:24;;;;;;;0.50;0.20;;;25.00;47.60;;;;;;5011181;28;20956;-66
2021/07/01 09:36:50;;;;;;;0.70;0.20;;;25.00;47.60;;;;;;5010163;28;20409;-66
2021/07/01 09:39:21;;;;;;;0.60;0.10;;;25.00;47.60;;;;;;5010960;28;20389;-66
2021/07/01 09:41:47;;;;;;;0.60;0.20;;;25.00;47.70;;;;;;5011081;28;20880;-66
2021/07/01 09:44:18;;;;;;;0.30;0.20;;;24.90;47.60;;;;;;5011207;28;20421;-66
2021/07/01 09:46:48;;;;;;;0.38;0.10;;;24.90;47.60;;;;;;4994256;28;20443;-66
2021/07/01 09:49:20;;;;;;;2.50;0.40;;;24.90;47.70;;;;;;5007217;28;20390;-66
2021/07/01 09:51:48;;;;;;;1.02;0.20;;;24.80;47.80;;;;;;5000187;28;20392;-66
2021/07/01 09:54:17;;;;;;;5.53;0.30;;;24.90;47.90;;;;;;5001164;28;20425;-66
2021/07/01 09:56:48;;;;;;;1.05;0.28;;;24.90;47.90;;;;;;4999537;28;20394;-66
2021/07/01 09:59:23;;;;;;;3.78;0.30;;;25.00;47.90;;;;;;4998625;28;20403;-66
2021/07/01 10:01:49;;;;;;;2.80;0.50;;;25.00;48.00;;;;;;4999653;28;20425;-66
2021/07/01 10:04:16;;;;;;;1.58;0.28;;;25.00;48.00;;;;;;5001101;28;20392;-66
2021/07/01 10:06:41;;;;;;;1.52;0.30;;;25.00;48.00;;;;;;5000524;28;20451;-67
2021/07/01 10:09:07;;;;;;;1.20;0.20;;;25.00;48.00;;;;;;5003477;28;20391;-66
2021/07/01 10:11:38;;;;;;;4.15;0.40;;;25.00;48.10;;;;;;5001295;28;20891;-67
2021/07/01 10:14:07;;;;;;;1.45;0.20;;;24.90;48.10;;;;;;5003860;28;20424;-67
2021/07/01 10:16:35;;;;;;;1.80;0.20;;;25.00;48.20;;;;;;5003188;28;20489;-67
2021/07/01 10:19:07;;;;;;;0.63;0.15;;;24.90;48.00;;;;;;5003762;28;20396;-67
2021/07/01 10:21:33;;;;;;;1.40;0.25;;;24.90;47.80;;;;;;5017686;28;20459;-67
2021/07/01 10:24:17;;;;;;;1.75;0.30;;;25.00;48.10;;;;;;5022723;28;20936;-66
2021/07/01 10:26:50;;;;;;;1.50;0.20;;;25.00;48.20;;;;;;5021284;28;20406;-66
2021/07/01 10:29:18;;;;;;;1.15;0.20;;;25.00;48.30;;;;;;5026696;28;20443;-66
2021/07/01 10:31:54;;;;;;;1.42;0.20;;;25.00;48.20;;;;;;5021593;28;20406;-67
2021/07/01 10:34:20;;;;;;;1.85;0.32;;;25.00;48.20;;;;;;5022513;28;20392;-67
2021/07/01 10:36:46;;;;;;;0.90;0.20;;;25.00;48.30;;;;;;5022878;28;20798;-69
2021/07/01 10:39:12;;;;;;;0.43;0.10;;;24.90;48.90;;;;;;5022987;28;20393;-66
2021/07/01 10:41:41;;;;;;;1.88;0.30;;;25.00;48.10;;;;;;5021593;28;20420;-67
2021/07/01 10:44:21;;;;;;;2.15;0.20;;;25.00;48.20;;;;;;5022645;28;20930;-66
2021/07/01 10:46:48;;;;;;;0.85;0.20;;;25.00;48.00;;;;;;5021038;28;20383;-67
2021/07/01 10:49:15;;;;;;;2.13;0.40;;;25.00;47.90;;;;;;5023106;28;20391;-66
2021/07/01 10:51:54;;;;;;;0.30;0.10;;;25.00;48.10;;;;;;5019507;28;20916;-66
2021/07/01 10:54:20;;;;;;;0.40;0.30;;;24.90;48.00;;;;;;5020767;28;20403;-68
2021/07/01 10:56:49;;;;;;;1.50;0.20;;;25.00;48.30;;;;;;5022380;28;20407;-66
2021/07/01 10:59:15;;;;;;;0.63;0.30;;;24.90;48.30;;;;;;5019574;28;20447;-66
2021/07/01 11:01:41;;;;;;;0.57;0.20;;;24.90;48.30;;;;;;5021107;28;20446;-66
2021/07/01 11:04:16;;;;;;;2.47;0.20;;;24.90;48.30;;;;;;5022183;28;20412;-66
2021/07/01 11:06:44;;;;;;;0.50;0.20;;;25.00;48.30;;;;;;5002756;28;20392;-66
2021/07/01 11:09:13;;;;;;;1.30;0.30;;;25.00;48.30;;;;;;5022158;28;21238;-67
2021/07/01 11:11:40;;;;;;;0.47;0.20;;;25.00;48.40;;;;;;5020619;28;20387;-65
2021/07/01 11:14:11;;;;;;;0.82;0.30;;;25.00;48.40;;;;;;5021993;28;20911;-66
2021/07/01 11:16:38;;;;;;;0.85;0.20;;;25.00;48.30;;;;;;5019712;28;20393;-65
2021/07/01 11:19:05;;;;;;;4.65;0.50;;;24.90;48.30;;;;;;5016046;28;20391;-67
2021/07/01 11:21:31;;;;;;;11.65;0.82;;;24.90;48.30;;;;;;5020589;28;20509;-66
2021/07/01 11:24:14;;;;;;;4.57;0.32;;;24.80;48.40;;;;;;5022210;28;20407;-66
2021/07/01 11:26:44;;;;;;;4.80;0.50;;;24.80;48.60;;;;;;5022054;28;20429;-66
2021/07/01 11:29:10;;;;;;;4.63;0.50;;;24.80;48.70;;;;;;5020233;28;20442;-66
2021/07/01 11:31:47;;;;;;;2.88;0.38;;;24.80;48.60;;;;;;5021899;28;20399;-70
2021/07/01 11:34:18;;;;;;;3.45;0.30;;;24.80;48.70;;;;;;5021178;28;20388;-66
2021/07/01 11:36:52;;;;;;;3.95;0.30;;;24.90;48.70;;;;;;5020641;28;20940;-66
2021/07/01 11:39:27;;;;;;;3.15;0.40;;;24.80;48.70;;;;;;5021063;28;20393;-69
2021/07/01 11:41:53;;;;;;;1.80;0.30;;;24.80;48.70;;;;;;5020004;28;20436;-67
2021/07/01 11:44:21;;;;;;;5.70;0.50;;;24.80;48.70;;;;;;5022485;28;20395;-69
2021/07/01 11:46:47;;;;;;;2.45;0.40;;;24.90;48.80;;;;;;5021179;28;20764;-66
2021/07/01 11:49:14;;;;;;;1.23;0.30;;;24.80;48.70;;;;;;5017769;28;20902;-67
2021/07/01 11:51:42;;;;;;;1.23;0.25;;;24.80;48.70;;;;;;5021689;28;20392;-67
2021/07/01 11:54:08;;;;;;;1.90;0.30;;;24.80;48.70;;;;;;5020339;28;20885;-66
2021/07/01 11:59:20;;;;;;;1.15;0.20;;;24.80;48.50;;;;;;5021071;28;20395;-65
2021/07/01 12:01:46;;;;;;;0.55;0.20;;;24.80;48.60;;;;;;5022506;28;20446;-67
2021/07/01 12:04:18;;;;;;;2.00;0.40;;;24.80;48.60;;;;;;5020648;28;20421;-68
2021/07/01 12:06:55;;;;;;;0.80;0.30;;;24.80;48.80;;;;;;5020241;28;20890;-66
2021/07/01 12:09:22;;;;;;;1.52;0.22;;;24.90;48.80;;;;;;5018987;28;21058;-66
2021/07/01 12:12:03;;;;;;;1.98;0.30;;;24.80;48.80;;;;;;5021957;28;20395;-66
2021/07/01 12:14:37;;;;;;;2.65;0.20;;;24.80;48.80;;;;;;5020777;28;20437;-66
2021/07/01 12:17:04;;;;;;;1.40;0.40;;;24.80;48.80;;;;;;5020094;28;20401;-67
2021/07/01 12:19:48;;;;;;;1.00;0.20;;;24.80;48.90;;;;;;5018449;28;20396;-66
2021/07/01 12:22:42;;;;;;;2.05;0.30;;;24.80;48.90;;;;;;5020151;28;20455;-66
2021/07/01 12:25:18;;;;;;;1.50;0.22;;;24.80;48.90;;;;;;5020049;28;20410;-66
2021/07/01 12:27:44;;;;;;;1.50;0.20;;;24.80;48.90;;;;;;5020262;28;20401;-66
2021/07/01 12:30:11;;;;;;;2.75;0.28;;;24.80;48.90;;;;;;5019395;28;20389;-66
2021/07/01 12:32:37;;;;;;;1.92;0.20;;;24.80;48.90;;;;;;5020258;28;20399;-67
2021/07/01 12:35:33;;;;;;;0.77;0.30;;;24.80;48.90;;;;;;5020921;28;20475;-66
2021/07/01 12:38:11;;;;;;;0.82;0.25;;;24.90;49.00;;;;;;5017849;28;20389;-66
2021/07/01 12:40:58;;;;;;;1.55;0.30;;;24.80;48.90;;;;;;5020390;28;20417;-66
2021/07/01 12:43:46;;;;;;;2.00;0.30;;;24.80;48.90;;;;;;5018357;28;20462;-65
2021/07/01 12:46:32;;;;;;;0.93;0.22;;;24.80;49.00;;;;;;5012242;28;20436;-66
2021/07/01 12:48:58;;;;;;;2.72;0.47;;;24.80;48.90;;;;;;5018709;28;20795;-66
2021/07/01 12:51:46;;;;;;;1.08;0.20;;;24.80;49.00;;;;;;5019358;28;20428;-66
2021/07/01 12:54:24;;;;;;;1.42;0.20;;;24.80;49.00;;;;;;5021329;28;20390;-66
2021/07/01 12:57:03;;;;;;;1.50;0.30;;;24.80;49.00;;;;;;5021518;28;20399;-66